Aegean Tiffany — SVAE9 — position and weather

sailwx.info

Track history (hours):
 
Tides and Currents Weather Stations Pressure Air Temp Water Temp Dewpoint Dewpoint Depression Visibility Wind Speed Wind Dir Waves Ship Positions

Aegean Tiffany

Last reported at 2014-Sep-26 21:22 UTC. Time now 2014-Oct-01 16:30 UTC.
Position N 37°55' E 023°01'.

Length 80 m; draft 5.6 m.

Type: Tanker. MMSI: 240870000.

Date/timePositionNaut miles runAvg speedWind from/ knotsBaromVisibWave heightAir tempDewpointWater temp
2014-Sep-26 21:22N 37°55' E 023°01'11 6.0
2014-Sep-26 19:33N 37°56' E 023°15'8 8.1
2014-Sep-26 18:33N 37°57' E 023°25'7 6.5
2014-Sep-26 17:33N 38°02' E 023°31'1 1.0
2014-Sep-26 16:33N 38°02' E 023°32'1 1.0
2014-Sep-26 15:33N 38°02' E 023°31'0 0.0
2014-Sep-26 14:33N 38°02' E 023°31'0 0.0
2014-Sep-26 13:33N 38°02' E 023°31'0 0.0
2014-Sep-26 12:33N 38°02' E 023°31'0 0.0
2014-Sep-26 11:33N 38°02' E 023°31'0 0.0
2014-Sep-26 10:33N 38°02' E 023°31'0 0.0
2014-Sep-26 09:33N 38°02' E 023°31'0 0.0
2014-Sep-26 08:33N 38°02' E 023°31'0 0.0
2014-Sep-26 07:33N 38°02' E 023°31'0 0.0
2014-Sep-26 06:33N 38°02' E 023°31'0 0.0
2014-Sep-26 05:33N 38°02' E 023°31'0 0.0
2014-Sep-26 04:33N 38°02' E 023°31'0 0.0
2014-Sep-26 03:33N 38°02' E 023°31'1 1.1
2014-Sep-26 02:33N 38°01' E 023°30'7 7.0
2014-Sep-26 01:33N 37°57' E 023°23'9 8.7
2014-Sep-26 00:32N 37°55' E 023°12'  
Track history (hours):
 
Tides and Currents Weather Stations Pressure Air Temp Water Temp Dewpoint Dewpoint Depression Visibility Wind Speed Wind Dir Waves Ship Positions

Aegean Tiffany

Last reported at 2014-Sep-26 21:22 UTC. Time now 2014-Oct-01 16:30 UTC.
Position N 37°55' E 023°01'.

Length 80 m; draft 5.6 m.

Type: Tanker. MMSI: 240870000.

Date/timePositionNaut miles runAvg speedWind from/ knotsBaromVisibWave heightAir tempDewpointWater temp
2014-Sep-26 21:22N 37°55' E 023°01'11 6.0
2014-Sep-26 19:33N 37°56' E 023°15'8 8.1
2014-Sep-26 18:33N 37°57' E 023°25'7 6.5
2014-Sep-26 17:33N 38°02' E 023°31'1 1.0
2014-Sep-26 16:33N 38°02' E 023°32'1 1.0
2014-Sep-26 15:33N 38°02' E 023°31'0 0.0
2014-Sep-26 14:33N 38°02' E 023°31'0 0.0
2014-Sep-26 13:33N 38°02' E 023°31'0 0.0
2014-Sep-26 12:33N 38°02' E 023°31'0 0.0
2014-Sep-26 11:33N 38°02' E 023°31'0 0.0
2014-Sep-26 10:33N 38°02' E 023°31'0 0.0
2014-Sep-26 09:33N 38°02' E 023°31'0 0.0
2014-Sep-26 08:33N 38°02' E 023°31'0 0.0
2014-Sep-26 07:33N 38°02' E 023°31'0 0.0
2014-Sep-26 06:33N 38°02' E 023°31'0 0.0
2014-Sep-26 05:33N 38°02' E 023°31'0 0.0
2014-Sep-26 04:33N 38°02' E 023°31'0 0.0
2014-Sep-26 03:33N 38°02' E 023°31'1 1.1
2014-Sep-26 02:33N 38°01' E 023°30'7 7.0
2014-Sep-26 01:33N 37°57' E 023°23'9 8.7
2014-Sep-26 00:32N 37°55' E 023°12'  

Dump ship's entire track history